createdAt,value
2018-08-30T00:02:07.756Z,0.00
2018-08-30T00:03:07.742Z,0.00
2018-08-30T00:04:07.729Z,0.00
2018-08-30T00:05:07.712Z,0.00
2018-08-30T00:06:07.700Z,0.00
2018-08-30T00:07:07.703Z,0.00
2018-08-30T00:11:00.332Z,0.00
2018-08-30T00:12:00.337Z,0.00
2018-08-30T00:14:42.823Z,0.00
2018-08-30T00:15:42.808Z,0.00
2018-08-30T00:16:42.791Z,0.00
2018-08-30T00:17:42.777Z,0.00
2018-08-30T00:18:42.764Z,0.00
2018-08-30T00:19:42.750Z,0.00
2018-08-30T00:20:42.735Z,0.00
2018-08-30T00:21:42.719Z,0.00
2018-08-30T00:22:42.706Z,0.00
2018-08-30T00:23:42.692Z,0.00
2018-08-30T00:24:42.677Z,0.00
2018-08-30T00:25:42.663Z,0.00
2018-08-30T00:26:42.649Z,0.00
2018-08-30T00:27:42.635Z,0.00
2018-08-30T00:28:42.622Z,0.00
2018-08-30T00:29:42.609Z,0.00
2018-08-30T00:30:42.591Z,0.00
2018-08-30T00:31:42.580Z,0.00
2018-08-30T00:32:42.563Z,0.00
2018-08-30T00:33:42.553Z,0.00
2018-08-30T00:34:42.534Z,0.00
2018-08-30T00:35:42.518Z,0.00
2018-08-30T00:36:42.507Z,0.00
2018-08-30T00:37:42.492Z,0.00
2018-08-30T00:38:42.476Z,0.00
2018-08-30T00:39:42.468Z,0.00
2018-08-30T00:40:42.451Z,0.00
2018-08-30T00:41:42.435Z,0.00
2018-08-30T00:42:42.420Z,0.00
2018-08-30T00:43:42.406Z,0.00
2018-08-30T00:44:42.393Z,0.00
2018-08-30T00:45:42.377Z,0.00
2018-08-30T00:46:42.362Z,0.00
2018-08-30T00:47:42.351Z,0.00
2018-08-30T00:48:42.334Z,0.00
2018-08-30T00:49:42.322Z,0.00
2018-08-30T00:50:42.304Z,0.00
2018-08-30T00:51:42.291Z,0.00
2018-08-30T00:52:42.275Z,0.00
2018-08-30T00:53:42.263Z,0.00
2018-08-30T00:54:42.246Z,0.00
2018-08-30T00:55:42.234Z,0.00
2018-08-30T00:56:42.219Z,0.00
2018-08-30T00:57:42.205Z,0.00
2018-08-30T00:58:42.189Z,0.00
2018-08-30T00:59:42.179Z,0.00
2018-08-30T01:00:42.162Z,0.00
2018-08-30T01:01:42.145Z,0.00
2018-08-30T01:02:42.180Z,0.00
2018-08-30T01:03:42.117Z,0.00
2018-08-30T01:04:42.102Z,0.00
2018-08-30T01:05:42.087Z,0.00
2018-08-30T01:06:42.072Z,0.00
2018-08-30T01:07:42.058Z,0.00
2018-08-30T01:09:54.622Z,0.00
2018-08-30T01:10:54.605Z,0.00
2018-08-30T01:11:54.591Z,0.00
2018-08-30T01:12:58.616Z,0.00
2018-08-30T01:13:54.561Z,0.00
2018-08-30T01:14:54.552Z,0.00
2018-08-30T01:15:54.533Z,0.00
2018-08-30T01:16:54.519Z,0.00
2018-08-30T01:17:54.506Z,0.00
2018-08-30T01:18:54.501Z,0.00
2018-08-30T01:19:54.475Z,0.00
2018-08-30T01:20:54.458Z,0.00
2018-08-30T01:21:54.447Z,0.00
2018-08-30T01:22:54.431Z,0.00
2018-08-30T01:23:54.424Z,0.00
2018-08-30T01:24:54.406Z,0.00
2018-08-30T01:25:54.388Z,0.00
2018-08-30T01:26:54.372Z,0.00
2018-08-30T01:27:54.356Z,0.00
2018-08-30T01:28:54.340Z,0.00
2018-08-30T01:29:54.325Z,0.00
2018-08-30T01:30:54.314Z,0.00
2018-08-30T01:31:54.296Z,0.00
2018-08-30T01:32:54.285Z,0.00
2018-08-30T01:33:54.269Z,0.00
2018-08-30T01:35:46.796Z,0.00
2018-08-30T01:36:46.782Z,0.00
2018-08-30T01:37:46.768Z,0.00
2018-08-30T01:38:46.756Z,0.00
2018-08-30T01:39:46.739Z,0.00
2018-08-30T01:43:02.545Z,0.00
2018-08-30T01:43:59.301Z,0.00
2018-08-30T01:44:59.286Z,0.00
2018-08-30T01:45:59.272Z,0.00
2018-08-30T01:46:59.259Z,0.00
2018-08-30T01:47:59.243Z,0.00
2018-08-30T01:48:59.228Z,0.00
2018-08-30T01:49:59.214Z,0.00
2018-08-30T01:50:59.198Z,0.00
2018-08-30T01:53:01.742Z,0.00
2018-08-30T01:54:01.744Z,0.00
2018-08-30T01:55:44.241Z,0.00
2018-08-30T01:56:44.226Z,0.00
2018-08-30T01:57:44.212Z,0.00
2018-08-30T01:58:44.196Z,0.00
2018-08-30T01:59:44.184Z,0.00
2018-08-30T02:00:44.167Z,0.00
2018-08-30T02:01:44.153Z,0.00
2018-08-30T02:02:44.136Z,0.00
2018-08-30T02:03:44.123Z,0.00
2018-08-30T02:04:44.109Z,0.00
2018-08-30T02:05:44.092Z,0.00
2018-08-30T02:06:44.077Z,0.00
2018-08-30T02:07:44.061Z,0.00
2018-08-30T02:08:44.048Z,0.00
2018-08-30T02:09:44.032Z,0.00
2018-08-30T02:10:44.022Z,0.00
2018-08-30T02:11:44.002Z,0.00
2018-08-30T02:12:43.985Z,0.00
2018-08-30T02:13:43.971Z,0.00
2018-08-30T02:14:43.954Z,0.00
2018-08-30T02:15:43.942Z,0.00
2018-08-30T02:16:43.926Z,0.00
2018-08-30T02:17:43.910Z,0.00
2018-08-30T02:18:43.895Z,0.00
2018-08-30T02:19:43.882Z,0.00
2018-08-30T02:20:43.865Z,0.00
2018-08-30T02:21:43.850Z,0.00
2018-08-30T02:22:43.844Z,0.00
2018-08-30T02:23:43.818Z,0.00
2018-08-30T02:24:43.808Z,0.00
2018-08-30T02:25:43.788Z,0.00
2018-08-30T02:26:43.777Z,0.00
2018-08-30T02:27:43.758Z,0.00
2018-08-30T02:28:43.742Z,0.00
2018-08-30T02:29:43.733Z,0.00
2018-08-30T02:30:43.712Z,0.00
2018-08-30T02:31:43.703Z,0.00
2018-08-30T02:32:43.692Z,0.00
2018-08-30T02:33:43.667Z,0.00
2018-08-30T02:34:43.650Z,0.00
2018-08-30T02:35:43.637Z,0.00
2018-08-30T02:36:43.622Z,0.00
2018-08-30T02:37:43.607Z,0.00
2018-08-30T02:38:43.591Z,0.00
2018-08-30T02:39:43.577Z,0.00
2018-08-30T02:40:43.564Z,0.00
2018-08-30T02:41:43.551Z,0.00
2018-08-30T02:42:43.543Z,0.00
2018-08-30T02:43:43.514Z,0.00
2018-08-30T02:44:43.500Z,0.00
2018-08-30T02:45:43.487Z,0.00
2018-08-30T02:46:43.477Z,0.00
2018-08-30T02:47:43.454Z,0.00
2018-08-30T02:48:43.441Z,0.00
2018-08-30T02:49:43.425Z,0.00
2018-08-30T02:50:43.415Z,0.00
2018-08-30T02:51:43.395Z,0.00
2018-08-30T02:52:43.380Z,0.00
2018-08-30T02:53:43.362Z,0.00
2018-08-30T02:54:43.345Z,0.00
2018-08-30T02:55:43.335Z,0.00
2018-08-30T02:56:43.317Z,0.00
2018-08-30T02:57:43.301Z,0.00
2018-08-30T02:58:43.285Z,0.00
2018-08-30T02:59:43.270Z,0.00
2018-08-30T03:00:43.256Z,0.00
2018-08-30T03:01:43.243Z,0.00
2018-08-30T03:02:43.225Z,0.00
2018-08-30T03:03:43.212Z,0.00
2018-08-30T03:04:43.193Z,0.00
2018-08-30T03:05:43.179Z,0.00
2018-08-30T03:06:43.163Z,0.00
2018-08-30T03:07:43.147Z,0.00
2018-08-30T03:08:43.131Z,0.00
2018-08-30T03:09:43.121Z,0.00
2018-08-30T03:10:43.100Z,0.00
2018-08-30T03:11:43.089Z,0.00
2018-08-30T03:12:43.070Z,0.00
2018-08-30T03:13:43.062Z,0.00
2018-08-30T03:14:43.040Z,0.00
2018-08-30T03:15:43.024Z,0.00
2018-08-30T03:16:43.008Z,0.00
2018-08-30T03:17:43.009Z,0.00
2018-08-30T03:18:42.978Z,0.00
2018-08-30T03:19:42.963Z,0.00
2018-08-30T03:20:42.951Z,0.00
2018-08-30T03:21:42.931Z,0.00
2018-08-30T03:22:42.917Z,0.00
2018-08-30T03:23:42.901Z,0.00
2018-08-30T03:24:42.888Z,0.00
2018-08-30T03:25:42.875Z,0.00
2018-08-30T03:26:42.856Z,0.00
2018-08-30T03:27:42.839Z,0.00
2018-08-30T03:28:42.825Z,0.00
2018-08-30T03:29:42.812Z,0.00
2018-08-30T03:30:42.859Z,0.00
2018-08-30T03:31:42.777Z,0.00
2018-08-30T03:32:42.763Z,0.00
2018-08-30T03:33:42.747Z,0.00
2018-08-30T03:34:42.735Z,0.00
2018-08-30T03:35:42.717Z,0.00
2018-08-30T03:36:42.700Z,0.00
2018-08-30T03:37:42.685Z,0.00
2018-08-30T03:38:42.673Z,0.00
2018-08-30T03:39:42.655Z,0.00
2018-08-30T03:40:42.637Z,0.00
2018-08-30T03:41:42.619Z,0.00
2018-08-30T03:42:42.606Z,0.00
2018-08-30T03:43:42.594Z,4.00
2018-08-30T03:44:42.575Z,4.00
2018-08-30T03:45:42.559Z,0.00
2018-08-30T03:46:42.545Z,0.00
2018-08-30T03:47:42.529Z,4.00
2018-08-30T03:48:42.514Z,4.00
2018-08-30T03:49:42.499Z,4.00
2018-08-30T03:50:42.481Z,4.00
2018-08-30T03:51:42.468Z,8.00
2018-08-30T03:52:42.452Z,8.00
2018-08-30T03:53:42.443Z,8.00
2018-08-30T03:54:42.419Z,12.00
2018-08-30T03:55:42.408Z,12.00
2018-08-30T03:56:42.388Z,12.00
2018-08-30T03:57:42.375Z,16.00
2018-08-30T03:58:42.357Z,20.00
2018-08-30T03:59:42.342Z,24.00
2018-08-30T04:00:42.328Z,24.00
2018-08-30T04:01:42.312Z,28.00
2018-08-30T04:02:42.300Z,28.00
2018-08-30T04:03:42.280Z,36.00
2018-08-30T04:04:42.264Z,36.00
2018-08-30T04:05:42.248Z,40.00
2018-08-30T04:06:42.232Z,44.00
2018-08-30T04:07:42.219Z,52.00
2018-08-30T04:08:42.202Z,56.00
2018-08-30T04:09:42.186Z,64.00
2018-08-30T04:10:42.171Z,68.00
2018-08-30T04:11:42.156Z,76.00
2018-08-30T04:12:42.138Z,80.00
2018-08-30T04:13:42.190Z,88.00
2018-08-30T04:14:42.124Z,96.00
2018-08-30T04:15:42.092Z,104.00
2018-08-30T04:16:42.080Z,112.00
2018-08-30T04:17:42.063Z,120.00
2018-08-30T04:18:42.043Z,132.00
2018-08-30T04:19:42.027Z,140.00
2018-08-30T04:20:42.011Z,148.00
2018-08-30T04:21:41.998Z,164.00
2018-08-30T04:22:41.983Z,176.00
2018-08-30T04:23:41.964Z,184.00
2018-08-30T04:24:41.951Z,200.00
2018-08-30T04:25:41.932Z,216.00
2018-08-30T04:26:41.918Z,228.00
2018-08-30T04:27:41.904Z,240.00
2018-08-30T04:28:41.890Z,264.00
2018-08-30T04:29:41.872Z,280.00
2018-08-30T04:30:41.858Z,304.00
2018-08-30T04:31:41.840Z,328.00
2018-08-30T04:32:41.826Z,352.00
2018-08-30T04:33:41.814Z,380.00
2018-08-30T04:34:41.793Z,404.00
2018-08-30T04:35:41.775Z,432.00
2018-08-30T04:36:41.761Z,464.00
2018-08-30T04:37:41.753Z,500.00
2018-08-30T04:38:41.737Z,540.00
2018-08-30T04:39:41.717Z,572.00
2018-08-30T04:40:41.698Z,608.00
2018-08-30T04:41:41.682Z,640.00
2018-08-30T04:42:41.743Z,672.00
2018-08-30T04:43:41.650Z,704.00
2018-08-30T04:44:41.639Z,744.00
2018-08-30T04:45:41.620Z,784.00
2018-08-30T04:46:41.602Z,836.00
2018-08-30T04:47:41.591Z,888.00
2018-08-30T04:48:41.571Z,924.00
2018-08-30T04:49:41.556Z,944.00
2018-08-30T04:50:41.618Z,968.00
2018-08-30T04:51:41.531Z,1004.00
2018-08-30T04:52:41.511Z,1048.00
2018-08-30T04:53:41.493Z,1076.00
2018-08-30T04:54:41.480Z,1080.00
2018-08-30T04:55:41.463Z,1092.00
2018-08-30T04:56:41.446Z,1116.00
2018-08-30T04:57:41.432Z,1172.00
2018-08-30T04:58:41.413Z,1244.00
2018-08-30T04:59:41.399Z,1344.00
2018-08-30T05:00:41.424Z,1416.00
2018-08-30T05:01:41.447Z,1448.00
2018-08-30T05:02:41.361Z,1400.00
2018-08-30T05:03:41.336Z,1352.00
2018-08-30T05:04:41.321Z,1352.00
2018-08-30T05:05:41.304Z,1384.00
2018-08-30T05:06:41.291Z,1428.00
2018-08-30T05:07:41.273Z,1492.00
2018-08-30T05:08:41.257Z,1576.00
2018-08-30T05:09:41.242Z,1648.00
2018-08-30T05:10:41.228Z,1684.00
2018-08-30T05:11:41.215Z,1704.00
2018-08-30T05:12:41.214Z,1724.00
2018-08-30T05:13:41.183Z,1736.00
2018-08-30T05:14:41.164Z,1732.00
2018-08-30T05:15:41.149Z,1684.00
2018-08-30T05:16:41.228Z,1652.00
2018-08-30T05:17:41.116Z,1608.00
2018-08-30T05:18:41.111Z,1576.00
2018-08-30T05:19:41.088Z,1568.00
2018-08-30T05:20:41.071Z,1556.00
2018-08-30T05:21:41.057Z,1548.00
2018-08-30T05:22:41.039Z,1548.00
2018-08-30T05:23:41.023Z,1584.00
2018-08-30T05:24:41.008Z,1640.00
2018-08-30T05:25:40.994Z,1680.00
2018-08-30T05:26:40.979Z,1688.00
2018-08-30T05:27:40.964Z,1668.00
2018-08-30T05:28:40.959Z,1664.00
2018-08-30T05:29:40.975Z,1684.00
2018-08-30T05:30:40.914Z,1736.00
2018-08-30T05:31:40.904Z,1764.00
2018-08-30T05:32:40.887Z,1756.00
2018-08-30T05:33:40.871Z,1764.00
2018-08-30T05:34:40.855Z,1792.00
2018-08-30T05:35:40.870Z,1856.00
2018-08-30T05:36:40.826Z,1932.00
2018-08-30T05:37:40.811Z,2008.00
2018-08-30T05:38:40.793Z,2056.00
2018-08-30T05:39:40.780Z,2072.00
2018-08-30T05:40:40.763Z,2052.00
2018-08-30T05:41:40.751Z,2048.00
2018-08-30T05:42:40.734Z,2044.00
2018-08-30T05:43:40.719Z,2036.00
2018-08-30T05:44:40.759Z,2016.00
2018-08-30T05:45:40.691Z,1972.00
2018-08-30T05:46:40.672Z,1916.00
2018-08-30T05:47:40.657Z,1860.00
2018-08-30T05:48:40.642Z,1800.00
2018-08-30T05:49:40.634Z,1744.00
2018-08-30T05:50:40.612Z,1712.00
2018-08-30T05:51:40.598Z,1704.00
2018-08-30T05:52:40.583Z,1680.00
2018-08-30T05:53:40.568Z,1656.00
2018-08-30T05:54:40.551Z,1660.00
2018-08-30T05:55:40.539Z,1680.00
2018-08-30T05:56:40.554Z,1672.00
2018-08-30T05:57:40.509Z,1676.00
2018-08-30T05:58:40.494Z,1696.00
2018-08-30T05:59:40.481Z,1756.00
2018-08-30T06:00:40.463Z,1896.00
2018-08-30T06:01:40.449Z,2072.00
2018-08-30T06:02:40.436Z,2220.00
2018-08-30T06:03:40.418Z,2312.00
2018-08-30T06:04:40.408Z,2348.00
2018-08-30T06:05:40.392Z,2400.00
2018-08-30T06:06:40.376Z,2484.00
2018-08-30T06:07:40.359Z,2668.00
2018-08-30T06:08:40.346Z,2832.00
2018-08-30T06:09:40.334Z,2992.00
2018-08-30T06:10:40.365Z,3140.00
2018-08-30T06:11:40.303Z,3212.00
2018-08-30T06:12:40.287Z,3244.00
2018-08-30T06:13:40.323Z,3368.00
2018-08-30T06:14:40.258Z,3584.00
2018-08-30T06:15:40.243Z,3728.00
2018-08-30T06:16:40.229Z,3804.00
2018-08-30T06:17:40.218Z,3944.00
2018-08-30T06:18:40.201Z,4268.00
2018-08-30T06:19:40.182Z,4612.00
2018-08-30T06:20:40.181Z,5028.00
2018-08-30T06:21:40.153Z,5464.00
2018-08-30T06:22:40.139Z,5932.00
2018-08-30T06:23:40.131Z,6332.00
2018-08-30T06:24:40.109Z,6544.00
2018-08-30T06:25:40.101Z,6576.00
2018-08-30T06:26:40.122Z,6416.00
2018-08-30T06:27:40.073Z,6496.00
2018-08-30T06:28:40.054Z,6656.00
2018-08-30T06:29:40.040Z,6908.00
2018-08-30T06:30:40.025Z,7200.00
2018-08-30T06:31:40.013Z,7368.00
2018-08-30T06:32:40.015Z,7360.00
2018-08-30T06:33:39.984Z,7268.00
2018-08-30T06:34:40.000Z,7416.00
2018-08-30T06:35:39.953Z,7320.00
2018-08-30T06:36:39.942Z,7036.00
2018-08-30T06:37:39.926Z,6628.00
2018-08-30T06:38:40.069Z,6444.00
2018-08-30T06:39:39.899Z,6388.00
2018-08-30T06:40:39.885Z,6296.00
2018-08-30T06:41:39.872Z,6248.00
2018-08-30T06:42:39.858Z,6036.00
2018-08-30T06:43:39.853Z,5984.00
2018-08-30T06:44:39.832Z,5992.00
2018-08-30T06:45:39.817Z,5860.00
2018-08-30T06:46:39.805Z,5728.00
2018-08-30T06:47:39.792Z,5596.00
2018-08-30T06:48:39.902Z,5304.00
2018-08-30T06:49:39.769Z,5152.00
2018-08-30T06:50:39.751Z,5048.00
2018-08-30T06:51:39.734Z,5004.00
2018-08-30T06:52:39.721Z,4808.00
2018-08-30T06:53:39.717Z,4536.00
2018-08-30T06:54:39.701Z,4220.00
2018-08-30T06:55:39.681Z,4092.00
2018-08-30T06:56:39.671Z,4188.00
2018-08-30T06:57:39.657Z,4256.00
2018-08-30T06:58:39.640Z,4132.00
2018-08-30T06:59:39.627Z,3928.00
2018-08-30T07:00:39.615Z,3708.00
2018-08-30T07:01:39.602Z,3444.00
2018-08-30T07:02:39.594Z,3216.00
2018-08-30T07:03:39.579Z,3084.00
2018-08-30T07:04:39.564Z,2964.00
2018-08-30T07:05:39.547Z,2840.00
2018-08-30T07:06:39.541Z,2752.00
2018-08-30T07:07:39.526Z,2732.00
2018-08-30T07:08:39.510Z,2776.00
2018-08-30T07:09:39.494Z,2812.00
2018-08-30T07:10:39.482Z,2828.00
2018-08-30T07:11:39.467Z,2852.00
2018-08-30T07:12:39.456Z,2872.00
2018-08-30T07:13:39.442Z,2836.00
2018-08-30T07:14:39.479Z,2756.00
2018-08-30T07:15:39.418Z,2660.00
2018-08-30T07:16:39.406Z,2612.00
2018-08-30T07:17:39.390Z,2596.00
2018-08-30T07:18:39.373Z,2604.00
2018-08-30T07:19:39.370Z,2600.00
2018-08-30T07:20:39.350Z,2616.00
2018-08-30T07:21:39.336Z,2724.00
2018-08-30T07:22:39.322Z,2800.00
2018-08-30T07:23:39.309Z,2860.00
2018-08-30T07:24:39.295Z,2904.00
2018-08-30T07:25:39.286Z,2992.00
2018-08-30T07:26:39.268Z,3064.00
2018-08-30T07:27:39.255Z,3144.00
2018-08-30T07:28:39.328Z,3204.00
2018-08-30T07:29:39.229Z,3276.00
2018-08-30T07:30:39.221Z,3424.00
2018-08-30T07:31:39.201Z,3620.00
2018-08-30T07:32:39.189Z,3804.00
2018-08-30T07:33:39.183Z,3940.00
2018-08-30T07:34:39.227Z,3932.00
2018-08-30T07:35:39.147Z,3788.00
2018-08-30T07:36:39.134Z,3676.00
2018-08-30T07:37:39.132Z,3684.00
2018-08-30T07:38:39.107Z,3728.00
2018-08-30T07:39:39.099Z,3544.00
2018-08-30T07:40:39.081Z,3248.00
2018-08-30T07:41:39.069Z,3008.00
2018-08-30T07:42:39.054Z,2836.00
2018-08-30T07:43:39.042Z,2716.00
2018-08-30T07:44:39.201Z,2524.00
2018-08-30T07:45:39.020Z,2432.00
2018-08-30T07:46:39.002Z,2468.00
2018-08-30T07:47:38.989Z,2536.00
2018-08-30T07:48:38.984Z,2512.00
2018-08-30T07:49:38.965Z,2668.00
2018-08-30T07:50:38.957Z,2824.00
2018-08-30T07:51:38.935Z,2928.00
2018-08-30T07:52:38.923Z,2988.00
2018-08-30T07:53:38.916Z,2952.00
2018-08-30T07:54:38.976Z,2792.00
2018-08-30T07:55:38.890Z,2584.00
2018-08-30T07:56:38.870Z,2612.00
2018-08-30T07:57:38.859Z,2652.00
2018-08-30T07:58:38.845Z,2684.00
2018-08-30T07:59:38.834Z,2712.00
2018-08-30T08:00:38.820Z,2632.00
2018-08-30T08:01:38.808Z,2700.00
2018-08-30T08:02:38.792Z,2816.00
2018-08-30T08:03:38.778Z,3004.00
2018-08-30T08:04:38.766Z,3164.00
2018-08-30T08:05:38.755Z,3384.00
2018-08-30T08:06:38.739Z,3808.00
2018-08-30T08:07:38.727Z,4300.00
2018-08-30T08:08:38.715Z,4664.00
2018-08-30T08:09:38.702Z,4840.00
2018-08-30T08:10:38.688Z,4900.00
2018-08-30T08:11:38.677Z,4904.00
2018-08-30T08:12:38.706Z,4844.00
2018-08-30T08:13:38.650Z,4680.00
2018-08-30T08:14:38.635Z,4496.00
2018-08-30T08:15:38.622Z,4256.00
2018-08-30T08:16:38.613Z,4152.00
2018-08-30T08:17:38.597Z,4232.00
2018-08-30T08:18:38.583Z,4340.00
2018-08-30T08:19:38.572Z,4320.00
2018-08-30T08:20:38.562Z,4332.00
2018-08-30T08:21:38.546Z,4620.00
2018-08-30T08:22:38.531Z,4960.00
2018-08-30T08:23:38.519Z,5200.00
2018-08-30T08:24:38.518Z,5332.00
2018-08-30T08:25:38.496Z,5480.00
2018-08-30T08:26:38.482Z,5544.00
2018-08-30T08:27:38.469Z,5316.00
2018-08-30T08:28:38.456Z,4916.00
2018-08-30T08:29:38.440Z,4544.00
2018-08-30T08:30:38.428Z,4164.00
2018-08-30T08:31:38.415Z,3876.00
2018-08-30T08:32:38.406Z,3720.00
2018-08-30T08:33:38.389Z,3804.00
2018-08-30T08:34:38.377Z,3888.00
2018-08-30T08:35:38.364Z,3824.00
2018-08-30T08:36:38.351Z,3820.00
2018-08-30T08:37:38.340Z,3860.00
2018-08-30T08:38:38.326Z,3872.00
2018-08-30T08:39:38.313Z,3904.00
2018-08-30T08:40:38.298Z,3948.00
2018-08-30T08:41:38.287Z,4116.00
2018-08-30T08:42:38.275Z,4312.00
2018-08-30T08:43:38.268Z,4380.00
2018-08-30T08:44:38.248Z,4412.00
2018-08-30T08:45:38.233Z,4388.00
2018-08-30T08:46:38.221Z,4388.00
2018-08-30T08:47:38.210Z,4368.00
2018-08-30T08:48:38.194Z,4200.00
2018-08-30T08:49:38.184Z,4044.00
2018-08-30T08:50:38.175Z,4036.00
2018-08-30T08:51:38.154Z,3976.00
2018-08-30T08:52:38.145Z,3936.00
2018-08-30T08:53:38.155Z,3852.00
2018-08-30T08:54:38.118Z,3736.00
2018-08-30T08:55:38.104Z,3796.00
2018-08-30T08:56:38.094Z,3876.00
2018-08-30T08:57:38.075Z,3872.00
2018-08-30T08:58:38.107Z,3948.00
2018-08-30T08:59:38.050Z,3960.00
2018-08-30T09:00:38.037Z,4004.00
2018-08-30T09:01:38.026Z,4164.00
2018-08-30T09:02:38.010Z,4232.00
2018-08-30T09:03:37.997Z,4260.00
2018-08-30T09:04:37.985Z,4236.00
2018-08-30T09:05:37.972Z,4200.00
2018-08-30T09:06:37.956Z,4180.00
2018-08-30T09:07:38.074Z,4084.00
2018-08-30T09:08:37.932Z,4016.00
2018-08-30T09:09:37.917Z,3920.00
2018-08-30T09:10:37.906Z,3848.00
2018-08-30T09:11:37.898Z,3756.00
2018-08-30T09:12:37.878Z,3864.00
2018-08-30T09:13:37.881Z,3840.00
2018-08-30T09:14:37.851Z,3916.00
2018-08-30T09:15:37.840Z,3960.00
2018-08-30T09:16:37.826Z,4044.00
2018-08-30T09:17:37.814Z,4024.00
2018-08-30T09:18:37.799Z,4124.00
2018-08-30T09:19:37.783Z,4176.00
2018-08-30T09:20:37.771Z,4224.00
2018-08-30T09:21:37.756Z,4440.00
2018-08-30T09:22:37.749Z,4276.00
2018-08-30T09:23:37.739Z,4208.00
2018-08-30T09:24:37.719Z,4168.00
2018-08-30T09:25:37.704Z,4344.00
2018-08-30T09:26:37.745Z,4000.00
2018-08-30T09:27:37.678Z,4244.00
2018-08-30T09:28:37.670Z,4248.00
2018-08-30T09:29:37.653Z,4144.00
2018-08-30T09:30:37.640Z,3912.00
2018-08-30T09:31:37.624Z,3696.00
2018-08-30T09:32:37.611Z,3480.00
2018-08-30T09:33:37.601Z,3572.00
2018-08-30T09:34:37.589Z,3200.00
2018-08-30T09:35:37.569Z,3204.00
2018-08-30T09:36:37.560Z,3684.00
2018-08-30T09:37:37.544Z,3684.00
2018-08-30T09:38:37.531Z,3860.00
2018-08-30T09:39:37.517Z,3988.00
2018-08-30T09:40:37.503Z,3976.00
2018-08-30T09:41:37.490Z,3776.00
2018-08-30T09:42:37.477Z,3636.00
2018-08-30T09:43:37.467Z,3568.00
2018-08-30T09:44:37.495Z,3556.00
2018-08-30T09:45:37.435Z,3480.00
2018-08-30T09:46:37.421Z,3540.00
2018-08-30T09:47:37.404Z,3484.00
2018-08-30T09:48:37.402Z,3548.00
2018-08-30T09:49:37.435Z,3432.00
2018-08-30T09:50:37.369Z,3324.00
2018-08-30T09:51:37.359Z,3364.00
2018-08-30T09:52:37.339Z,3180.00
2018-08-30T09:53:37.328Z,3240.00
2018-08-30T09:54:37.310Z,3284.00
2018-08-30T09:55:37.323Z,3104.00
2018-08-30T09:56:37.345Z,2736.00
2018-08-30T09:57:37.359Z,2600.00
2018-08-30T09:58:37.256Z,2520.00
2018-08-30T09:59:37.244Z,2568.00
2018-08-30T10:00:37.225Z,2520.00
2018-08-30T10:01:37.218Z,2424.00
2018-08-30T10:02:37.197Z,2288.00
2018-08-30T10:03:37.227Z,2316.00
2018-08-30T10:04:37.211Z,2304.00
2018-08-30T10:05:37.155Z,2672.00
2018-08-30T10:06:37.142Z,2584.00
2018-08-30T10:07:37.126Z,2560.00
2018-08-30T10:08:37.114Z,2440.00
2018-08-30T10:09:37.101Z,2460.00
2018-08-30T10:10:37.083Z,2592.00
2018-08-30T10:11:37.068Z,2744.00
2018-08-30T10:12:37.082Z,3044.00
2018-08-30T10:13:37.040Z,2836.00
2018-08-30T10:14:37.026Z,3308.00
2018-08-30T10:15:37.011Z,2856.00
2018-08-30T10:16:36.996Z,3060.00
2018-08-30T10:17:36.983Z,3572.00
2018-08-30T10:18:36.972Z,3656.00
2018-08-30T10:19:36.954Z,3540.00
2018-08-30T10:20:36.942Z,3304.00
2018-08-30T10:21:36.983Z,2960.00
2018-08-30T10:22:36.915Z,2684.00
2018-08-30T10:23:36.895Z,2680.00
2018-08-30T10:24:36.879Z,2904.00
2018-08-30T10:25:36.865Z,3152.00
2018-08-30T10:26:36.850Z,3028.00
2018-08-30T10:27:36.837Z,3124.00
2018-08-30T10:28:36.821Z,3180.00
2018-08-30T10:29:36.807Z,3056.00
2018-08-30T10:30:36.792Z,2964.00
2018-08-30T10:31:36.924Z,2940.00
2018-08-30T10:32:36.766Z,2652.00
2018-08-30T10:33:36.749Z,3068.00
2018-08-30T10:34:36.759Z,4292.00
2018-08-30T10:35:36.725Z,3952.00
2018-08-30T10:36:36.706Z,3532.00
2018-08-30T10:37:36.692Z,3624.00
2018-08-30T10:38:36.675Z,3468.00
2018-08-30T10:39:36.666Z,3452.00
2018-08-30T10:40:36.647Z,4092.00
2018-08-30T10:41:36.644Z,3812.00
2018-08-30T10:42:36.619Z,3664.00
2018-08-30T10:43:36.602Z,3512.00
2018-08-30T10:44:36.590Z,2840.00
2018-08-30T10:45:36.586Z,2300.00
2018-08-30T10:46:36.560Z,1860.00
2018-08-30T10:47:36.548Z,1964.00
2018-08-30T10:48:36.531Z,1852.00
2018-08-30T10:49:36.666Z,1816.00
2018-08-30T10:50:36.501Z,1720.00
2018-08-30T10:51:36.494Z,1704.00
2018-08-30T10:52:36.473Z,1948.00
2018-08-30T10:53:36.457Z,1748.00
2018-08-30T10:54:36.444Z,1480.00
2018-08-30T10:55:36.430Z,1436.00
2018-08-30T10:56:36.416Z,1680.00
2018-08-30T10:57:36.401Z,1528.00
2018-08-30T10:58:36.390Z,1452.00
2018-08-30T10:59:36.371Z,1692.00
2018-08-30T11:00:36.358Z,1536.00
2018-08-30T11:01:36.344Z,1548.00
2018-08-30T11:02:36.328Z,1640.00
2018-08-30T11:03:36.313Z,1632.00
2018-08-30T11:04:36.304Z,1532.00
2018-08-30T11:05:36.286Z,2000.00
2018-08-30T11:06:36.274Z,2228.00
2018-08-30T11:07:36.254Z,2204.00
2018-08-30T11:08:36.242Z,1900.00
2018-08-30T11:09:36.232Z,2044.00
2018-08-30T11:10:36.219Z,1820.00
2018-08-30T11:11:36.197Z,1660.00
2018-08-30T11:12:36.183Z,2244.00
2018-08-30T11:13:36.294Z,3856.00
2018-08-30T11:14:36.155Z,5260.00
2018-08-30T11:15:36.139Z,6372.00
2018-08-30T11:16:36.127Z,6332.00
2018-08-30T11:17:36.109Z,4936.00
2018-08-30T11:18:36.097Z,5596.00
2018-08-30T11:19:36.082Z,6088.00
2018-08-30T11:20:36.066Z,5188.00
2018-08-30T11:21:36.056Z,4544.00
2018-08-30T11:22:36.037Z,4276.00
2018-08-30T11:23:36.055Z,3936.00
2018-08-30T11:24:36.080Z,4528.00
2018-08-30T11:25:36.005Z,4648.00
2018-08-30T11:26:35.981Z,3976.00
2018-08-30T11:27:35.968Z,4220.00
2018-08-30T11:28:35.953Z,4524.00
2018-08-30T11:29:35.938Z,4916.00
2018-08-30T11:30:35.928Z,4112.00
2018-08-30T11:31:35.913Z,3588.00
2018-08-30T11:32:35.896Z,4112.00
2018-08-30T11:33:35.885Z,4124.00
2018-08-30T11:34:35.865Z,3304.00
2018-08-30T11:35:35.852Z,2904.00
2018-08-30T11:36:35.839Z,2612.00
2018-08-30T11:37:35.914Z,2444.00
2018-08-30T11:38:35.813Z,2176.00
2018-08-30T11:39:35.795Z,2256.00
2018-08-30T11:40:35.782Z,2248.00
2018-08-30T11:41:35.956Z,2076.00
2018-08-30T11:42:35.753Z,1800.00
2018-08-30T11:43:35.739Z,1976.00
2018-08-30T11:44:35.724Z,2316.00
2018-08-30T11:45:35.709Z,2228.00
2018-08-30T11:46:35.697Z,1696.00
2018-08-30T11:47:35.680Z,1384.00
2018-08-30T11:48:35.669Z,1448.00
2018-08-30T11:49:35.655Z,1460.00
2018-08-30T11:50:35.642Z,1332.00
2018-08-30T11:51:35.624Z,1272.00
2018-08-30T11:52:35.651Z,1268.00
2018-08-30T11:53:35.595Z,1172.00
2018-08-30T11:54:35.581Z,1360.00
2018-08-30T11:55:35.567Z,1224.00
2018-08-30T11:56:35.557Z,1292.00
2018-08-30T11:57:35.548Z,1536.00
2018-08-30T11:58:35.529Z,1604.00
2018-08-30T11:59:35.510Z,1568.00
2018-08-30T12:00:35.497Z,2028.00
2018-08-30T12:01:35.482Z,2508.00
2018-08-30T12:02:35.468Z,2800.00
2018-08-30T12:03:35.454Z,3408.00
2018-08-30T12:04:35.440Z,4032.00
2018-08-30T12:05:35.427Z,5360.00
2018-08-30T12:06:35.417Z,6136.00
2018-08-30T12:07:35.396Z,5376.00
2018-08-30T12:08:35.385Z,3436.00
2018-08-30T12:09:35.370Z,2700.00
2018-08-30T12:10:35.432Z,2696.00
2018-08-30T12:11:35.444Z,3048.00
2018-08-30T12:12:35.326Z,2612.00
2018-08-30T12:13:35.314Z,3636.00
2018-08-30T12:14:35.299Z,4084.00
2018-08-30T12:15:35.282Z,3164.00
2018-08-30T12:16:35.270Z,3644.00
2018-08-30T12:17:35.258Z,4864.00
2018-08-30T12:18:35.245Z,5860.00
2018-08-30T12:19:35.229Z,6188.00
2018-08-30T12:20:35.248Z,8776.00
2018-08-30T12:21:35.200Z,8564.00
2018-08-30T12:22:35.192Z,8180.00
2018-08-30T12:23:35.177Z,10136.00
2018-08-30T12:24:35.160Z,10228.00
2018-08-30T12:25:35.155Z,6436.00
2018-08-30T12:26:35.183Z,4912.00
2018-08-30T12:27:35.123Z,4572.00
2018-08-30T12:28:35.218Z,6084.00
2018-08-30T12:29:35.098Z,5884.00
2018-08-30T12:30:35.124Z,6624.00
2018-08-30T12:31:35.096Z,5384.00
2018-08-30T12:32:35.154Z,7512.00
2018-08-30T12:33:35.129Z,6180.00
2018-08-30T12:34:35.091Z,4672.00
2018-08-30T12:35:35.077Z,3896.00
2018-08-30T12:36:34.995Z,2752.00
2018-08-30T12:37:35.004Z,1988.00
2018-08-30T12:38:35.009Z,2016.00
2018-08-30T12:39:34.961Z,4276.00
2018-08-30T12:40:34.941Z,4708.00